Time;durP1;ratioP1;P1;durP2;ratioP2;P2;SDS_P1;SDS_P2;PMS_P1;PMS_P2;Temp;Humidity;BMP_temperature;BMP_pressure;BME280_temperature;BME280_humidity;BME280_pressure;Samples;Min_cycle;Max_cycle;Signal;HPM_P1;HPM_P2
2023/11/25 00:00:40;;;;;;;;;3.00;3.00;;;;;12.01;85.57;101301.63;2108672;27;46479;-59
2023/11/25 00:01:40;;;;;;;;;5.25;4.00;;;;;11.97;85.72;101297.25;2107158;27;46920;-60
2023/11/25 00:02:41;;;;;;;;;4.67;3.33;;;;;11.96;86.22;101302.63;2108950;27;46430;-61
2023/11/25 00:03:41;;;;;;;;;3.00;3.00;;;;;11.96;86.39;101295.50;2106504;27;46723;-60
2023/11/25 00:04:41;;;;;;;;;7.00;4.67;;;;;11.95;86.79;101299.09;2108003;27;46557;-60
2023/11/25 00:05:42;;;;;;;;;4.00;4.00;;;;;11.95;86.65;101299.09;2106596;27;46497;-61
2023/11/25 00:06:42;;;;;;;;;5.00;5.00;;;;;11.96;86.55;101300.84;2108104;27;46515;-60
2023/11/25 00:07:42;;;;;;;;;2.67;2.67;;;;;11.96;86.59;101298.16;2106531;27;46554;-60
2023/11/25 00:08:43;;;;;;;;;5.00;3.00;;;;;11.98;86.72;101300.81;2109148;27;46629;-60
2023/11/25 00:09:43;;;;;;;;;4.00;3.00;;;;;11.95;86.63;101300.88;2107255;27;46209;-59
2023/11/25 00:10:43;;;;;;;;;0.67;0.67;;;;;11.94;86.92;101307.97;2108267;27;45543;-60
2023/11/25 00:11:44;;;;;;;;;5.00;3.33;;;;;11.92;87.04;101301.78;2105508;27;46031;-61
2023/11/25 00:12:46;;;;;;;;;2.00;2.00;;;;;11.91;87.02;101305.34;2108061;27;46103;-61
2023/11/25 00:13:46;;;;;;;;;7.75;5.00;;;;;11.91;87.25;101299.16;2107080;27;46213;-59
2023/11/25 00:14:46;;;;;;;;;3.67;3.67;;;;;11.89;87.51;101299.16;2107846;27;46694;-60
2023/11/25 00:15:47;;;;;;;;;3.00;3.00;;;;;11.89;87.54;101299.16;2106933;27;46669;-58
2023/11/25 00:16:47;;;;;;;;;6.00;6.00;;;;;11.91;87.92;101299.16;2108798;27;47657;-61
2023/11/25 00:17:47;;;;;;;;;4.00;4.00;;;;;11.93;87.37;101300.88;2107051;27;46506;-61
2023/11/25 00:18:48;;;;;;;;;3.33;3.33;;;;;11.90;87.68;101295.59;2108910;27;46252;-60
2023/11/25 00:19:48;;;;;;;;;4.67;4.67;;;;;11.89;87.81;101295.63;2107546;27;46718;-63
2023/11/25 00:20:48;;;;;;;;;4.00;3.67;;;;;11.92;87.62;101298.22;2107096;27;46227;-60
2023/11/25 00:21:49;;;;;;;;;4.00;4.00;;;;;11.92;88.10;101288.47;2105120;27;46814;-62
2023/11/25 00:22:49;;;;;;;;;3.00;3.00;;;;;11.97;88.02;101297.25;2098874;28;46080;-59
2023/11/25 00:23:49;;;;;;;;;4.00;4.00;;;;;11.91;87.62;101293.81;2096835;28;48235;-56
2023/11/25 00:25:10;;;;;;;;;3.67;3.67;;;;;11.94;88.09;101293.75;2107809;27;46435;-57
2023/11/25 00:26:10;;;;;;;;;5.25;5.00;;;;;11.96;87.97;101299.97;2089744;28;46033;-61
2023/11/25 00:27:10;;;;;;;;;3.67;3.67;;;;;11.86;88.21;101296.56;2088535;28;46740;-60
2023/11/25 00:28:11;;;;;;;;;5.00;5.00;;;;;11.93;88.27;101292.88;2090321;28;46142;-60
2023/11/25 00:29:11;;;;;;;;;5.00;4.00;;;;;11.95;88.02;101293.75;2086818;28;46787;-62
2023/11/25 00:30:14;;;;;;;;;3.33;3.00;;;;;11.86;88.45;101296.56;2073861;28;45529;-60
2023/11/25 00:31:14;;;;;;;;;5.75;4.00;;;;;11.88;88.55;101297.41;2072259;28;46534;-58
2023/11/25 00:32:15;;;;;;;;;4.00;4.00;;;;;11.94;88.39;101297.34;2074658;28;46292;-59
2023/11/25 00:33:15;;;;;;;;;4.25;3.75;;;;;11.87;88.40;101300.13;2071830;28;46161;-61
2023/11/25 00:34:16;;;;;;;;;3.00;3.00;;;;;11.86;88.90;101298.34;2073810;28;46299;-61
2023/11/25 00:35:16;;;;;;;;;5.00;5.00;;;;;11.95;88.71;101300.88;2071534;28;46342;-60
2023/11/25 00:36:16;;;;;;;;;4.00;4.00;;;;;11.96;88.52;101300.84;2073541;28;46954;-60
2023/11/25 00:37:17;;;;;;;;;4.00;4.00;;;;;11.96;88.45;101300.84;2071863;28;46377;-59
2023/11/25 00:38:17;;;;;;;;;5.67;5.00;;;;;11.98;88.67;101296.34;2073967;28;46819;-60
2023/11/25 00:39:19;;;;;;;;;7.33;5.67;;;;;11.90;88.71;101298.25;2065067;28;46355;-59
2023/11/25 00:40:20;;;;;;;;;7.50;6.75;;;;;11.97;89.17;101291.06;2065605;28;46173;-61
2023/11/25 00:41:20;;;;;;;;;6.00;6.00;;;;;11.98;89.34;101293.69;2072778;28;46395;-60
2023/11/25 00:42:21;;;;;;;;;9.33;8.00;;;;;12.00;89.57;101291.88;2074505;28;45609;-61
2023/11/25 00:43:21;;;;;;;;;6.67;5.67;;;;;12.00;89.63;101293.66;2073182;28;46616;-59
2023/11/25 00:44:22;;;;;;;;;7.00;7.00;;;;;12.02;89.74;101302.50;2073850;28;46287;-61
2023/11/25 00:45:25;;;;;;;;;6.33;6.00;;;;;12.01;89.51;101298.06;2071796;28;46742;-61
2023/11/25 00:46:25;;;;;;;;;8.25;6.50;;;;;12.00;89.82;101294.53;2072821;28;46491;-60
2023/11/25 00:47:27;;;;;;;;;13.25;11.25;;;;;11.95;89.62;101301.75;2071403;28;45282;-62
2023/11/25 00:48:28;;;;;;;;;19.00;18.60;;;;;11.99;90.00;101290.13;2065959;28;46816;-60
2023/11/25 00:49:29;;;;;;;;;25.40;22.40;;;;;12.02;89.65;101290.06;2063785;28;46773;-59
2023/11/25 00:50:30;;;;;;;;;28.75;28.00;;;;;12.02;89.73;101291.84;2074124;28;46914;-61
2023/11/25 00:51:30;;;;;;;;;12.75;12.00;;;;;12.02;89.56;101290.06;2072178;28;45570;-58
2023/11/25 00:52:31;;;;;;;;;9.00;7.33;;;;;12.00;89.44;101297.19;2073758;28;46681;-60
2023/11/25 00:53:31;;;;;;;;;8.33;8.00;;;;;12.00;89.36;101293.66;2072177;28;46284;-62
2023/11/25 00:54:32;;;;;;;;;16.25;13.25;;;;;11.98;89.34;101288.38;2073696;28;46355;-60
2023/11/25 00:55:32;;;;;;;;;14.75;14.00;;;;;11.98;89.56;101291.03;2071723;28;46599;-60
2023/11/25 00:56:32;;;;;;;;;10.00;10.00;;;;;11.99;89.66;101289.25;2074047;28;46300;-61
2023/11/25 00:57:33;;;;;;;;;8.67;8.67;;;;;12.00;89.84;101291.00;2076356;28;46014;-61
2023/11/25 00:58:33;;;;;;;;;12.25;12.25;;;;;12.00;89.76;101294.53;2097938;28;46858;-59
2023/11/25 00:59:33;;;;;;;;;7.00;7.00;;;;;11.99;89.54;101294.56;2096953;28;46216;-61
2023/11/25 01:00:33;;;;;;;;;8.67;8.00;;;;;11.98;89.74;101292.81;2099015;28;46533;-59
2023/11/25 01:01:34;;;;;;;;;9.33;8.67;;;;;12.01;89.87;101287.44;2098512;27;46260;-59
2023/11/25 01:02:35;;;;;;;;;5.67;4.33;;;;;11.99;89.92;101289.25;2105076;27;46308;-60
2023/11/25 01:03:35;;;;;;;;;3.33;3.00;;;;;11.98;89.86;101287.50;2106980;27;46411;-60
2023/11/25 01:04:39;;;;;;;;;4.33;4.33;;;;;11.90;89.67;101290.28;2107190;27;45610;-60
2023/11/25 01:05:39;;;;;;;;;3.75;3.75;;;;;11.87;89.90;101290.34;2104076;27;46472;-58
2023/11/25 01:06:44;;;;;;;;;3.00;3.00;;;;;11.95;90.07;101291.09;2108043;27;45115;-60
2023/11/25 01:07:44;;;;;;;;;3.75;3.75;;;;;11.94;90.11;101291.09;2106283;27;46961;-60
2023/11/25 01:08:45;;;;;;;;;5.33;5.00;;;;;11.96;89.98;101299.97;2108259;27;46485;-57
2023/11/25 01:09:45;;;;;;;;;5.00;4.00;;;;;11.88;90.16;101299.22;2104516;27;46297;-58
2023/11/25 01:10:45;;;;;;;;;3.67;3.00;;;;;11.86;90.40;101301.91;2107308;27;46746;-62
2023/11/25 01:11:46;;;;;;;;;6.00;6.00;;;;;11.91;90.61;101299.16;2103979;27;46242;-60
2023/11/25 01:12:46;;;;;;;;;4.67;3.67;;;;;11.92;90.85;101299.13;2107380;27;46879;-60
2023/11/25 01:13:47;;;;;;;;;6.67;6.67;;;;;11.85;91.15;101308.13;2106165;27;46500;-59
2023/11/25 01:14:47;;;;;;;;;9.33;7.00;;;;;11.95;91.09;101300.88;2107799;27;46296;-63
2023/11/25 01:15:48;;;;;;;;;1.00;1.00;;;;;11.94;91.18;101302.66;2107077;27;46368;-61
2023/11/25 01:16:52;;;;;;;;;4.67;4.67;;;;;11.98;91.08;101300.81;2107929;27;46225;-59
2023/11/25 01:17:52;;;;;;;;;5.00;5.00;;;;;11.97;91.23;101305.25;2107350;27;46912;-62
2023/11/25 01:18:52;;;;;;;;;4.33;3.33;;;;;12.00;90.76;101301.66;2105952;27;46717;-61
2023/11/25 01:19:52;;;;;;;;;3.00;2.33;;;;;11.99;90.36;101303.44;2107007;27;46522;-61
2023/11/25 01:20:55;;;;;;;;;5.25;5.00;;;;;11.97;90.17;101304.38;2095865;28;46864;-59
2023/11/25 01:21:55;;;;;;;;;15.40;13.20;;;;;11.95;90.44;101306.19;2097608;27;47033;-61
2023/11/25 01:22:55;;;;;;;;;14.00;10.00;;;;;11.95;90.44;101303.53;2106970;27;46628;-60
2023/11/25 01:23:56;;;;;;;;;37.00;34.25;;;;;11.94;90.57;101309.72;2106029;27;46261;-61
2023/11/25 01:24:56;;;;;;;;;17.25;16.75;;;;;11.93;90.55;101306.19;2096085;28;47064;-60
2023/11/25 01:25:56;;;;;;;;;8.33;6.33;;;;;11.94;90.45;101309.72;2106328;27;46409;-61
2023/11/25 01:26:58;;;;;;;;;19.50;17.25;;;;;11.92;90.53;101308.88;2087301;28;46279;-61
2023/11/25 01:27:58;;;;;;;;;15.40;13.80;;;;;11.90;90.71;101311.56;2081603;28;46884;-58
2023/11/25 01:28:58;;;;;;;;;20.00;15.75;;;;;11.93;90.78;101307.97;2079989;28;46472;-60
2023/11/25 01:29:59;;;;;;;;;32.00;28.25;;;;;11.92;90.80;101306.22;2089412;28;46369;-60
2023/11/25 01:31:00;;;;;;;;;20.00;19.20;;;;;11.93;90.93;101310.63;2096735;28;46453;-60
2023/11/25 01:32:00;;;;;;;;;12.50;10.25;;;;;11.96;90.55;101315.91;2097751;28;46839;-61
2023/11/25 01:33:02;;;;;;;;;24.75;23.50;;;;;11.96;90.35;101313.25;2097115;28;46436;-61
2023/11/25 01:34:03;;;;;;;;;28.00;26.00;;;;;11.86;90.92;101309.88;2097405;28;46898;-60
2023/11/25 01:35:05;;;;;;;;;21.75;18.75;;;;;11.85;91.18;101305.47;2096639;28;46943;-61
2023/11/25 01:36:09;;;;;;;;;28.00;23.80;;;;;11.84;91.11;101302.84;2097107;28;47005;-60
2023/11/25 01:37:11;;;;;;;;;15.80;12.60;;;;;11.83;91.36;101309.06;2096292;28;46596;-59
2023/11/25 01:38:12;;;;;;;;;23.20;20.80;;;;;11.89;91.17;101300.97;2098344;28;47150;-61
2023/11/25 01:39:13;;;;;;;;;18.20;17.00;;;;;11.90;91.12;101300.94;2096699;28;46729;-61
2023/11/25 01:40:15;;;;;;;;;26.25;22.50;;;;;11.82;91.26;101302.88;2097372;28;46166;-62
2023/11/25 01:41:15;;;;;;;;;7.50;6.50;;;;;11.77;91.37;101310.88;2096458;28;46801;-62
2023/11/25 01:42:17;;;;;;;;;28.25;26.25;;;;;11.74;91.44;101310.94;2098412;28;46196;-60
2023/11/25 01:43:21;;;;;;;;;26.80;25.80;;;;;11.70;91.80;101295.94;2096758;28;46611;-61
2023/11/25 01:44:22;;;;;;;;;17.40;16.40;;;;;11.75;92.02;101309.16;2098727;27;46530;-61
2023/11/25 01:45:22;;;;;;;;;14.00;11.00;;;;;11.82;92.13;101313.50;2096873;28;46254;-60
2023/11/25 01:46:36;;;;;;;;;19.25;17.75;;;;;11.88;91.88;101317.81;2097519;28;46339;-61
2023/11/25 01:47:55;;;;;;;;;22.40;20.80;;;;;11.88;91.80;101321.34;2089326;28;46775;-62
2023/11/25 01:48:55;;;;;;;;;17.20;14.60;;;;;11.85;91.74;101323.19;2088536;28;46400;-60
2023/11/25 01:49:57;;;;;;;;;42.75;38.00;;;;;11.85;92.10;101324.06;2089249;28;46737;-59
2023/11/25 01:50:58;;;;;;;;;26.80;23.40;;;;;11.83;92.08;101312.59;2088773;28;46873;-62
2023/11/25 01:51:59;;;;;;;;;29.00;29.00;;;;;11.87;91.99;101316.06;2089228;28;46739;-59
2023/11/25 01:53:00;;;;;;;;;43.25;35.00;;;;;11.88;92.07;101320.47;2087703;28;46741;-59
2023/11/25 01:54:02;;;;;;;;;41.25;36.50;;;;;11.85;92.16;101321.41;2088468;28;46479;-62
2023/11/25 01:55:03;;;;;;;;;17.40;16.00;;;;;11.87;92.12;101318.72;2088650;28;46871;-60
2023/11/25 01:56:04;;;;;;;;;14.80;12.00;;;;;11.86;92.08;101320.50;2089675;28;46533;-61
2023/11/25 01:57:05;;;;;;;;;22.00;20.75;;;;;11.85;92.13;101313.44;2087718;28;46295;-61
2023/11/25 01:58:07;;;;;;;;;17.40;16.40;;;;;11.85;91.92;101320.53;2088676;28;46657;-61
2023/11/25 01:59:11;;;;;;;;;15.00;15.00;;;;;11.85;92.08;101321.41;2103676;27;46659;-61
2023/11/25 02:00:13;;;;;;;;;18.20;16.00;;;;;11.81;92.17;101311.72;2106883;27;46532;-59
2023/11/25 02:01:13;;;;;;;;;19.00;17.00;;;;;11.82;92.05;101309.97;2105351;27;46506;-61
2023/11/25 02:02:35;;;;;;;;;16.50;14.75;;;;;11.84;92.28;101306.38;2106669;27;46967;-60
2023/11/25 02:03:36;;;;;;;;;7.75;5.75;;;;;11.74;92.37;101315.38;2087227;28;46363;-60
2023/11/25 02:04:37;;;;;;;;;15.50;11.75;;;;;11.82;92.44;101313.50;2089755;28;46438;-60
2023/11/25 02:05:38;;;;;;;;;13.60;11.40;;;;;11.83;92.18;101314.38;2081049;28;46835;-59
2023/11/25 02:06:38;;;;;;;;;26.20;25.20;;;;;11.83;92.46;101312.59;2081382;28;46861;-62
2023/11/25 02:07:39;;;;;;;;;30.75;26.50;;;;;11.85;92.78;101309.91;2088584;28;46514;-60
2023/11/25 02:08:39;;;;;;;;;36.75;32.00;;;;;11.90;92.45;101311.56;2090118;28;46551;-61
2023/11/25 02:09:40;;;;;;;;;14.50;14.00;;;;;11.94;92.43;101310.63;2079089;28;46275;-61
2023/11/25 02:10:40;;;;;;;;;10.00;7.00;;;;;11.94;92.04;101315.94;2071869;28;46676;-59
2023/11/25 02:11:57;;;;;;;;;18.50;17.00;;;;;11.94;92.14;101315.03;2071372;28;46887;-61
2023/11/25 02:12:57;;;;;;;;;7.75;7.75;;;;;11.89;92.14;101320.44;2081649;28;46717;-61
2023/11/25 02:13:58;;;;;;;;;7.33;4.67;;;;;11.84;92.31;101317.00;2089296;28;46326;-60
2023/11/25 02:14:58;;;;;;;;;22.80;22.00;;;;;11.82;92.09;101313.50;2089368;28;46832;-60
2023/11/25 02:15:59;;;;;;;;;19.50;17.50;;;;;11.78;92.51;101314.41;2090769;28;46548;-59
2023/11/25 02:17:00;;;;;;;;;13.75;13.75;;;;;11.74;92.87;101312.72;2089200;28;45300;-60
2023/11/25 02:18:00;;;;;;;;;11.00;10.50;;;;;11.76;93.22;101316.22;2091336;28;46864;-59
2023/11/25 02:19:01;;;;;;;;;17.25;17.25;;;;;11.76;93.08;101318.88;2089153;28;46804;-60
2023/11/25 02:20:03;;;;;;;;;9.75;7.25;;;;;11.73;93.10;101316.28;2098229;28;46665;-61
2023/11/25 02:21:07;;;;;;;;;11.00;10.00;;;;;11.63;93.48;101312.88;2096812;28;46763;-59
2023/11/25 02:22:10;;;;;;;;;10.00;10.00;;;;;11.73;93.55;101317.16;2098580;28;46302;-58
2023/11/25 02:23:22;;;;;;;;;17.00;11.60;;;;;11.73;93.46;101308.28;2097795;28;46619;-61
2023/11/25 02:24:26;;;;;;;;;10.50;9.25;;;;;11.71;93.56;101310.09;2099813;28;46278;-61
2023/11/25 02:25:27;;;;;;;;;12.80;10.40;;;;;11.76;93.56;101318.88;2093627;28;47011;-61
2023/11/25 02:26:27;;;;;;;;;30.60;28.40;;;;;11.75;93.33;101307.34;2094250;28;46902;-60
2023/11/25 02:27:28;;;;;;;;;12.50;11.00;;;;;11.75;93.36;101315.34;2095987;28;46806;-59
2023/11/25 02:28:28;;;;;;;;;3.33;3.33;;;;;11.77;93.43;101305.53;2098298;28;46910;-61
2023/11/25 02:29:33;;;;;;;;;13.00;11.75;;;;;11.75;93.34;101302.03;2097821;28;46392;-61
2023/11/25 02:30:33;;;;;;;;;11.60;11.20;;;;;11.76;93.45;101311.78;2099719;28;46082;-59
2023/11/25 02:31:33;;;;;;;;;18.50;17.75;;;;;11.77;93.59;101315.31;2096686;28;47618;-60
2023/11/25 02:32:33;;;;;;;;;6.75;6.75;;;;;11.78;94.03;101312.63;2098787;28;46247;-61
2023/11/25 02:33:36;;;;;;;;;7.50;7.25;;;;;11.70;93.84;101313.69;2096777;28;46261;-59
2023/11/25 02:34:37;;;;;;;;;13.80;12.20;;;;;11.69;93.88;101304.81;2098700;28;45718;-62
2023/11/25 02:35:38;;;;;;;;;10.75;8.00;;;;;11.58;94.35;101309.44;2105223;27;46693;-59
2023/11/25 02:36:38;;;;;;;;;10.50;9.00;;;;;11.57;94.88;101307.69;2109068;27;46361;-60
2023/11/25 02:37:38;;;;;;;;;9.00;9.00;;;;;11.57;95.35;101313.00;2106983;27;46418;-57
2023/11/25 02:38:39;;;;;;;;;9.50;5.75;;;;;11.57;95.32;101306.81;2109529;27;46623;-61
2023/11/25 02:39:39;;;;;;;;;4.67;4.67;;;;;11.57;95.22;101304.16;2107662;27;46925;-60
2023/11/25 02:40:44;;;;;;;;;4.00;4.00;;;;;11.56;95.19;101302.38;2108802;27;46541;-60
2023/11/25 02:41:51;;;;;;;;;12.60;10.80;;;;;11.63;95.40;101302.25;2107446;27;45945;-61
2023/11/25 02:42:52;;;;;;;;;7.50;7.50;;;;;11.66;95.06;101302.19;2107579;27;46428;-59
2023/11/25 02:43:52;;;;;;;;;5.67;5.00;;;;;11.67;94.59;101303.06;2104128;27;46967;-61
2023/11/25 02:44:52;;;;;;;;;8.67;8.00;;;;;11.57;94.77;101305.03;2094708;28;46855;-61
2023/11/25 02:45:53;;;;;;;;;14.75;13.00;;;;;11.55;95.09;101308.59;2106749;27;47036;-60
2023/11/25 02:46:53;;;;;;;;;6.67;6.67;;;;;11.54;95.45;101305.06;2114781;27;46895;-61
2023/11/25 02:47:54;;;;;;;;;6.00;5.00;;;;;11.53;95.67;101307.72;2108098;27;46706;-63
2023/11/25 02:48:54;;;;;;;;;3.33;3.33;;;;;11.65;95.59;101311.06;2107600;27;46611;-62
2023/11/25 02:49:55;;;;;;;;;3.00;3.00;;;;;11.65;95.18;101304.88;2108390;27;46299;-59
2023/11/25 02:50:55;;;;;;;;;5.67;5.00;;;;;11.67;95.22;101303.94;2107312;27;46409;-60
2023/11/25 02:51:56;;;;;;;;;6.33;6.00;;;;;11.67;95.22;101303.06;2108395;27;46433;-62
2023/11/25 02:52:56;;;;;;;;;4.00;4.00;;;;;11.59;94.74;101305.88;2107894;27;46334;-59
2023/11/25 02:53:56;;;;;;;;;6.00;4.67;;;;;11.54;95.34;101299.72;2107917;27;46978;-60
2023/11/25 02:54:57;;;;;;;;;4.00;3.00;;;;;11.53;95.86;101300.63;2107408;27;46496;-60
2023/11/25 02:55:57;;;;;;;;;7.67;6.33;;;;;11.52;95.83;101303.31;2106073;27;46956;-61
2023/11/25 02:56:57;;;;;;;;;5.67;3.00;;;;;11.50;96.15;101308.66;2106292;27;46512;-61
2023/11/25 02:57:58;;;;;;;;;7.00;5.33;;;;;11.47;96.32;101312.25;2108200;27;46234;-61
2023/11/25 02:58:58;;;;;;;;;6.00;5.00;;;;;11.49;96.58;101302.47;2107139;27;46837;-61
2023/11/25 02:59:59;;;;;;;;;2.33;2.33;;;;;11.48;96.65;101311.34;2108570;27;46292;-61
2023/11/25 03:01:07;;;;;;;;;2.67;2.67;;;;;11.57;96.87;101304.16;2105939;27;47198;-59
2023/11/25 03:02:09;;;;;;;;;3.00;2.75;;;;;11.47;96.74;101304.28;2105894;27;46465;-58
2023/11/25 03:03:13;;;;;;;;;3.75;3.75;;;;;11.47;96.78;101309.59;2107135;27;46114;-59
2023/11/25 03:04:15;;;;;;;;;3.50;3.25;;;;;11.48;96.79;101306.03;2108827;27;46953;-62
2023/11/25 03:05:16;;;;;;;;;2.00;2.00;;;;;11.47;96.55;101309.59;2106962;27;46901;-62
2023/11/25 03:06:21;;;;;;;;;2.67;2.67;;;;;11.51;96.77;101305.09;2111844;27;46575;-61
2023/11/25 03:07:22;;;;;;;;;5.25;4.00;;;;;11.54;96.49;101299.72;2107849;27;46870;-60
2023/11/25 03:08:22;;;;;;;;;2.00;2.00;;;;;11.54;96.53;101307.72;2116666;27;46598;-59
2023/11/25 03:09:22;;;;;;;;;4.00;3.00;;;;;11.55;96.53;101304.16;2113952;27;46280;-60
2023/11/25 03:10:25;;;;;;;;;3.67;3.67;;;;;11.54;96.70;101296.19;2108832;27;46328;-60
2023/11/25 03:11:26;;;;;;;;;2.00;2.00;;;;;11.44;96.86;101300.81;2107718;27;46490;-60
2023/11/25 03:12:26;;;;;;;;;1.00;1.00;;;;;11.43;97.27;101304.34;2108127;27;46568;-61
2023/11/25 03:13:27;;;;;;;;;3.33;3.33;;;;;11.43;97.74;101299.03;2104347;27;46591;-58
2023/11/25 03:14:27;;;;;;;;;4.00;3.00;;;;;11.42;97.52;101302.59;2108710;27;46643;-60
2023/11/25 03:15:27;;;;;;;;;2.00;2.00;;;;;11.47;97.48;101306.94;2106261;27;46158;-60
2023/11/25 03:16:29;;;;;;;;;1.00;1.00;;;;;11.49;97.05;101304.25;2108100;27;46788;-60
2023/11/25 03:17:29;;;;;;;;;2.75;2.00;;;;;11.46;97.15;101299.00;2105680;27;46651;-60
2023/11/25 03:18:31;;;;;;;;;2.33;2.33;;;;;11.48;97.50;101297.19;2108354;27;46580;-58
2023/11/25 03:19:32;;;;;;;;;4.75;4.00;;;;;11.46;97.27;101299.88;2105497;27;47450;-59
2023/11/25 03:20:33;;;;;;;;;3.75;3.00;;;;;11.47;97.41;101292.78;2108615;27;46448;-56
2023/11/25 03:21:34;;;;;;;;;2.00;2.00;;;;;11.46;97.67;101294.56;2105206;27;47016;-59
2023/11/25 03:22:35;;;;;;;;;3.75;3.00;;;;;11.47;97.79;101296.31;2109409;27;47073;-60
2023/11/25 03:23:39;;;;;;;;;1.00;0.00;;;;;11.47;97.85;101296.31;2106833;27;46832;-61
2023/11/25 03:24:41;;;;;;;;;2.00;1.75;;;;;11.47;98.04;101301.63;2107994;27;47015;-58
2023/11/25 03:25:41;;;;;;;;;0.75;0.75;;;;;11.47;98.11;101296.31;2105778;27;46610;-59
2023/11/25 03:26:43;;;;;;;;;2.00;2.00;;;;;11.42;98.14;101297.28;2107760;27;46665;-62
2023/11/25 03:27:44;;;;;;;;;2.75;2.75;;;;;11.46;98.12;101293.69;2107791;27;46832;-60
2023/11/25 03:28:44;;;;;;;;;4.00;4.00;;;;;11.44;98.12;101298.16;2108502;27;46178;-59
2023/11/25 03:29:44;;;;;;;;;3.33;3.00;;;;;11.43;98.37;101299.03;2106283;27;46303;-61
2023/11/25 03:30:46;;;;;;;;;0.00;0.00;;;;;11.43;98.35;101304.34;2108777;27;46310;-60
2023/11/25 03:31:46;;;;;;;;;3.00;3.00;;;;;11.41;98.34;101293.75;2104133;27;47816;-62
2023/11/25 03:32:48;;;;;;;;;2.00;2.00;;;;;11.43;98.60;101296.38;2108079;27;46343;-61
2023/11/25 03:33:48;;;;;;;;;3.00;3.00;;;;;11.42;98.49;101299.94;2105926;27;46703;-64
2023/11/25 03:34:48;;;;;;;;;2.00;2.00;;;;;11.42;98.65;101300.81;2106767;27;46863;-58
2023/11/25 03:35:49;;;;;;;;;3.00;2.67;;;;;11.42;98.79;101300.81;2106025;27;46492;-62
2023/11/25 03:36:49;;;;;;;;;3.00;3.00;;;;;11.36;98.71;101295.59;2106014;27;46882;-61
2023/11/25 03:37:49;;;;;;;;;3.00;3.00;;;;;11.33;99.26;101300.09;2107908;27;47013;-60
2023/11/25 03:38:50;;;;;;;;;3.00;3.00;;;;;11.34;99.59;101296.53;2107519;27;46261;-61
2023/11/25 03:39:50;;;;;;;;;4.33;3.00;;;;;11.39;100.00;101307.97;2107575;27;46326;-61
2023/11/25 03:40:52;;;;;;;;;2.67;2.67;;;;;11.31;100.00;101299.25;2107341;27;46845;-61
2023/11/25 03:41:53;;;;;;;;;4.00;2.50;;;;;11.39;99.72;101300.88;2107173;27;46609;-60
2023/11/25 03:42:53;;;;;;;;;2.33;2.33;;;;;11.40;99.26;101301.75;2107048;27;46191;-61
2023/11/25 03:43:54;;;;;;;;;4.00;4.00;;;;;11.41;99.52;101295.53;2108834;27;46584;-60
2023/11/25 03:44:54;;;;;;;;;1.67;1.67;;;;;11.41;99.38;101296.41;2107221;27;46679;-60
2023/11/25 03:45:54;;;;;;;;;3.00;2.00;;;;;11.36;99.50;101300.03;2106725;27;46331;-60
2023/11/25 03:46:54;;;;;;;;;4.33;2.33;;;;;11.30;99.37;101292.16;2105994;27;46835;-61
2023/11/25 03:47:55;;;;;;;;;2.33;2.33;;;;;11.29;99.64;101291.28;2108578;27;46371;-58
2023/11/25 03:48:55;;;;;;;;;2.00;2.00;;;;;11.36;99.84;101295.59;2106365;27;46511;-59
2023/11/25 03:49:55;;;;;;;;;2.33;2.33;;;;;11.37;99.85;101300.00;2106871;27;46454;-59
2023/11/25 03:50:56;;;;;;;;;3.00;3.00;;;;;11.39;99.66;101297.31;2104659;27;46776;-60
2023/11/25 03:51:56;;;;;;;;;3.00;1.67;;;;;11.39;99.61;101298.22;2108194;27;46671;-59
2023/11/25 03:52:56;;;;;;;;;4.33;4.00;;;;;11.39;99.36;101307.97;2104365;27;45453;-60
2023/11/25 03:53:57;;;;;;;;;3.67;3.00;;;;;11.39;99.73;101307.97;2106970;27;46737;-59
2023/11/25 03:54:58;;;;;;;;;3.33;3.33;;;;;11.39;99.90;101314.16;2107093;27;46575;-61
2023/11/25 03:55:59;;;;;;;;;1.75;1.75;;;;;11.38;99.71;101300.88;2107660;27;46460;-59
2023/11/25 03:57:00;;;;;;;;;3.00;2.50;;;;;11.38;99.72;101311.53;2114659;27;46461;-61
2023/11/25 03:58:01;;;;;;;;;3.33;3.00;;;;;11.39;99.94;101308.84;2107133;27;46224;-60
2023/11/25 03:59:01;;;;;;;;;3.00;2.75;;;;;11.38;99.75;101317.72;2096736;28;46730;-60
2023/11/25 04:00:03;;;;;;;;;3.00;2.00;;;;;11.36;99.74;101311.53;2108043;27;47229;-61
2023/11/25 04:01:03;;;;;;;;;2.75;2.25;;;;;11.38;99.86;101312.41;2106695;27;46645;-61
2023/11/25 04:02:04;;;;;;;;;5.67;3.33;;;;;11.37;99.97;101318.63;2108942;27;46921;-61
2023/11/25 04:03:04;;;;;;;;;3.67;3.67;;;;;11.37;100.00;101320.41;2104577;27;47038;-62
2023/11/25 04:04:04;;;;;;;;;4.00;2.00;;;;;11.30;100.00;101316.06;2107632;27;46325;-62
2023/11/25 04:05:06;;;;;;;;;3.00;3.00;;;;;11.36;100.00;101308.88;2106786;27;45699;-62
2023/11/25 04:06:07;;;;;;;;;3.00;2.50;;;;;11.42;100.00;101315.88;2108140;27;46532;-60
2023/11/25 04:07:07;;;;;;;;;2.00;2.00;;;;;11.37;100.00;101310.63;2107017;27;46257;-62
2023/11/25 04:08:07;;;;;;;;;2.00;2.00;;;;;11.36;100.00;101314.22;2108367;27;46276;-63
2023/11/25 04:09:08;;;;;;;;;3.00;3.00;;;;;11.36;100.00;101318.66;2112388;27;46516;-60
2023/11/25 04:10:13;;;;;;;;;2.00;2.00;;;;;11.35;100.00;101319.53;2106961;27;46577;-59
2023/11/25 04:11:14;;;;;;;;;4.00;2.75;;;;;11.37;100.00;101315.97;2105988;27;46564;-60
2023/11/25 04:12:14;;;;;;;;;2.00;2.00;;;;;11.33;100.00;101316.91;2108284;27;46385;-58
2023/11/25 04:13:15;;;;;;;;;3.00;3.00;;;;;11.34;100.00;101317.78;2106805;27;46367;-58
2023/11/25 04:14:16;;;;;;;;;4.00;2.00;;;;;11.31;100.00;101316.06;2108763;27;46173;-61
2023/11/25 04:15:21;;;;;;;;;2.00;2.00;;;;;11.31;100.00;101321.38;2106573;27;45912;-62
2023/11/25 04:16:21;;;;;;;;;3.00;3.00;;;;;11.21;100.00;101317.09;2107561;27;46407;-60
2023/11/25 04:17:22;;;;;;;;;5.67;4.00;;;;;11.17;100.00;101316.25;2106710;27;46255;-61
2023/11/25 04:18:22;;;;;;;;;4.00;2.33;;;;;11.16;100.00;101318.91;2108381;27;46905;-59
2023/11/25 04:19:22;;;;;;;;;2.00;2.00;;;;;11.14;100.00;101318.06;2104894;27;45841;-60
2023/11/25 04:20:28;;;;;;;;;2.00;2.00;;;;;11.10;100.00;101309.28;2098764;28;46344;-59
2023/11/25 04:21:28;;;;;;;;;4.00;2.75;;;;;11.09;100.00;101320.81;2097857;27;46450;-62
2023/11/25 04:22:28;;;;;;;;;4.33;4.33;;;;;11.08;100.00;101318.19;2107791;27;46935;-61
2023/11/25 04:23:30;;;;;;;;;2.00;2.00;;;;;11.07;100.00;101319.09;2106829;27;46340;-59
2023/11/25 04:24:30;;;;;;;;;3.00;3.00;;;;;11.08;100.00;101320.84;2108027;27;46475;-61
2023/11/25 04:25:32;;;;;;;;;5.00;3.00;;;;;11.06;100.00;101312.88;2105106;27;46345;-59
2023/11/25 04:26:32;;;;;;;;;1.00;1.00;;;;;11.15;100.00;101317.16;2108707;27;46393;-58
2023/11/25 04:27:32;;;;;;;;;5.00;3.33;;;;;11.19;100.00;101311.81;2106311;27;46502;-62
2023/11/25 04:28:33;;;;;;;;;2.00;2.00;;;;;11.10;100.00;101309.28;2108370;27;46736;-58
2023/11/25 04:29:33;;;;;;;;;3.00;3.00;;;;;11.09;100.00;101322.59;2104686;27;46356;-62
2023/11/25 04:30:34;;;;;;;;;4.67;3.00;;;;;11.08;100.00;101321.72;2107146;27;46476;-61
2023/11/25 04:31:36;;;;;;;;;2.00;2.00;;;;;11.08;100.00;101319.06;2106129;27;46901;-64
2023/11/25 04:32:39;;;;;;;;;3.00;1.25;;;;;11.08;100.00;101320.84;2108702;27;46391;-60
2023/11/25 04:33:40;;;;;;;;;2.00;2.00;;;;;11.18;100.00;101317.16;2106765;27;47002;-60
2023/11/25 04:34:40;;;;;;;;;3.00;3.00;;;;;11.08;100.00;101315.53;2107789;27;46156;-60
2023/11/25 04:35:41;;;;;;;;;3.33;1.67;;;;;11.07;100.00;101319.09;2106524;27;46654;-59
2023/11/25 04:36:41;;;;;;;;;3.67;2.00;;;;;11.07;100.00;101319.09;2108904;27;46180;-61
2023/11/25 04:37:46;;;;;;;;;4.33;3.00;;;;;11.06;100.00;101317.31;2106265;27;45645;-60
2023/11/25 04:38:46;;;;;;;;;2.75;2.00;;;;;11.04;100.00;101314.66;2108036;27;46747;-60
2023/11/25 04:39:46;;;;;;;;;2.00;2.00;;;;;11.04;100.00;101321.75;2106215;27;46608;-62
2023/11/25 04:40:47;;;;;;;;;3.00;3.00;;;;;11.03;100.00;101320.00;2107684;27;46434;-62
2023/11/25 04:41:48;;;;;;;;;3.00;3.00;;;;;11.15;100.00;101319.81;2105846;27;47286;-60
2023/11/25 04:42:48;;;;;;;;;4.00;4.00;;;;;11.06;100.00;101318.19;2106767;27;46324;-62